< < Back
Terminal Aerodrome Forecast


Current Version              Previous Versions:   1  2  3  4  5  6  7  8  9  

Terminal Aerodrome Forecast

801
FTUS42 KCAE 060500
TAFCAE
TAF
KCAE 060539Z 0606/0706 05010KT P6SM SCT015 OVC025
      TEMPO 0606/0610 BKN015
     FM061600 04012KT P6SM SCT050
     FM061800 04008KT P6SM SCT250
     FM070100 VRB03KT P6SM SCT250=



Latest METAR

054
SAUS80 KWBC 060900 CCA
MTRCAE
METAR KCAE 060856Z 03011KT 10SM BKN026 OVC042 04/M01 A3033 RMK AO2
SLP270 T00391006 51010


USA.gov is the U.S. government's official web portal to all federal, state and local government web resources and services.